Aeolos — V7PS2 — position and weather

sailwx.info

Track history (hours):
 
Tides and Currents Weather Stations Pressure Air Temp Water Temp Dewpoint Dewpoint Depression Visibility Wind Speed Wind Dir Waves Ship Positions

Aeolos

Last reported at 2015-Feb-03 14:28 UTC. Time now 2015-Mar-05 06:35 UTC.
Position S 35°10' W 056°41'.
Warning: this ship's position is 29 days out of date.

Length 172 m; draft 8.4 m.

Type: Cargo ship. MMSI: 538003275.

Date/timePositionNaut miles runAvg speedWind from/ knotsBaromVisibWave heightAir tempDewpointWater temp
2015-Feb-03 14:28S 35°10' W 056°41'3311.2
2015-Feb-03 11:33S 34°56' W 057°17'2613.0
2015-Feb-03 09:33S 34°44' W 057°45'3 3.0
2015-Feb-03 08:31S 34°44' W 057°49'0 0.0
2015-Feb-03 07:31S 34°44' W 057°49'0 0.0
2015-Feb-03 06:31S 34°44' W 057°48'0 0.0
2015-Feb-03 05:28S 34°44' W 057°48'0 0.1
2015-Feb-03 04:25S 34°44' W 057°48'0 0.1
2015-Feb-03 03:31S 34°44' W 057°48'0 0.0
2015-Feb-03 02:31S 34°44' W 057°48'0 0.0
2015-Feb-03 01:34S 34°44' W 057°48'0 0.2
2015-Feb-03 00:34S 34°44' W 057°49'2 1.7
2015-Feb-02 23:33S 34°43' W 057°50'1312.6
2015-Feb-02 22:33S 34°39' W 058°05'1111.0
2015-Feb-02 21:33S 34°34' W 058°17'1410.0
2015-Feb-02 20:11S 34°23' W 058°27'15 9.4
2015-Feb-02 18:33S 34°15' W 058°42'9 9.4
2015-Feb-02 17:33S 34°11' W 058°53'6 5.8
2015-Feb-02 16:32S 34°07' W 058°58'  
2015-Jan-29 11:33S 34°17' W 058°03'1211.9
2015-Jan-29 10:33S 34°27' W 057°57'1313.2
2015-Jan-29 09:33S 34°41' W 057°58'10 9.5
2015-Jan-29 08:33S 34°46' W 057°48'0 0.4
2015-Jan-29 07:32S 34°46' W 057°48'0 0.0
2015-Jan-29 06:32S 34°46' W 057°48'0 0.0
2015-Jan-29 05:26S 34°46' W 057°48'0 0.2
2015-Jan-29 04:28S 34°46' W 057°48'7 8.1
2015-Jan-29 03:33S 34°45' W 057°39'109 4.5
2015-Jan-28 03:25S 35°13' W 055°31'0 0.0
2015-Jan-26 23:28S 35°13' W 055°32'0 0.0
2015-Jan-26 22:10S 35°13' W 055°32'0 0.0
2015-Jan-26 21:31S 35°13' W 055°32'0 0.0
2015-Jan-26 20:28S 35°13' W 055°32'0 0.0
2015-Jan-26 03:33S 35°13' W 055°32'0 0.1
2015-Jan-26 02:33S 35°13' W 055°32'0 0.1
2015-Jan-26 01:33S 35°13' W 055°31'0 0.1
2015-Jan-26 00:33S 35°13' W 055°31'0 0.0
2015-Jan-25 23:30S 35°13' W 055°31'0 0.2
2015-Jan-25 22:30S 35°13' W 055°32'0 0.0
2015-Jan-25 21:24S 35°13' W 055°32'0 0.0
2015-Jan-25 20:27S 35°13' W 055°32'0 0.0
2015-Jan-25 10:24S 35°13' W 055°31'0 0.0
2015-Jan-25 01:30S 35°13' W 055°32'0 0.0
2015-Jan-24 23:32S 35°13' W 055°32'  
Track history (hours):
 
Tides and Currents Weather Stations Pressure Air Temp Water Temp Dewpoint Dewpoint Depression Visibility Wind Speed Wind Dir Waves Ship Positions

Aeolos

Last reported at 2015-Feb-03 14:28 UTC. Time now 2015-Mar-05 06:35 UTC.
Position S 35°10' W 056°41'.
Warning: this ship's position is 29 days out of date.

Length 172 m; draft 8.4 m.

Type: Cargo ship. MMSI: 538003275.

Date/timePositionNaut miles runAvg speedWind from/ knotsBaromVisibWave heightAir tempDewpointWater temp
2015-Feb-03 14:28S 35°10' W 056°41'3311.2
2015-Feb-03 11:33S 34°56' W 057°17'2613.0
2015-Feb-03 09:33S 34°44' W 057°45'3 3.0
2015-Feb-03 08:31S 34°44' W 057°49'0 0.0
2015-Feb-03 07:31S 34°44' W 057°49'0 0.0
2015-Feb-03 06:31S 34°44' W 057°48'0 0.0
2015-Feb-03 05:28S 34°44' W 057°48'0 0.1
2015-Feb-03 04:25S 34°44' W 057°48'0 0.1
2015-Feb-03 03:31S 34°44' W 057°48'0 0.0
2015-Feb-03 02:31S 34°44' W 057°48'0 0.0
2015-Feb-03 01:34S 34°44' W 057°48'0 0.2
2015-Feb-03 00:34S 34°44' W 057°49'2 1.7
2015-Feb-02 23:33S 34°43' W 057°50'1312.6
2015-Feb-02 22:33S 34°39' W 058°05'1111.0
2015-Feb-02 21:33S 34°34' W 058°17'1410.0
2015-Feb-02 20:11S 34°23' W 058°27'15 9.4
2015-Feb-02 18:33S 34°15' W 058°42'9 9.4
2015-Feb-02 17:33S 34°11' W 058°53'6 5.8
2015-Feb-02 16:32S 34°07' W 058°58'  
2015-Jan-29 11:33S 34°17' W 058°03'1211.9
2015-Jan-29 10:33S 34°27' W 057°57'1313.2
2015-Jan-29 09:33S 34°41' W 057°58'10 9.5
2015-Jan-29 08:33S 34°46' W 057°48'0 0.4
2015-Jan-29 07:32S 34°46' W 057°48'0 0.0
2015-Jan-29 06:32S 34°46' W 057°48'0 0.0
2015-Jan-29 05:26S 34°46' W 057°48'0 0.2
2015-Jan-29 04:28S 34°46' W 057°48'7 8.1
2015-Jan-29 03:33S 34°45' W 057°39'109 4.5
2015-Jan-28 03:25S 35°13' W 055°31'0 0.0
2015-Jan-26 23:28S 35°13' W 055°32'0 0.0
2015-Jan-26 22:10S 35°13' W 055°32'0 0.0
2015-Jan-26 21:31S 35°13' W 055°32'0 0.0
2015-Jan-26 20:28S 35°13' W 055°32'0 0.0
2015-Jan-26 03:33S 35°13' W 055°32'0 0.1
2015-Jan-26 02:33S 35°13' W 055°32'0 0.1
2015-Jan-26 01:33S 35°13' W 055°31'0 0.1
2015-Jan-26 00:33S 35°13' W 055°31'0 0.0
2015-Jan-25 23:30S 35°13' W 055°31'0 0.2
2015-Jan-25 22:30S 35°13' W 055°32'0 0.0
2015-Jan-25 21:24S 35°13' W 055°32'0 0.0
2015-Jan-25 20:27S 35°13' W 055°32'0 0.0
2015-Jan-25 10:24S 35°13' W 055°31'0 0.0
2015-Jan-25 01:30S 35°13' W 055°32'0 0.0
2015-Jan-24 23:32S 35°13' W 055°32'  

Dump ship's entire track history